createdAt,value
2019-05-25T12:05:49.718Z,0.30
2019-05-25T12:13:08.178Z,0.20
2019-05-25T12:20:34.931Z,0.40
2019-05-25T12:23:02.962Z,0.37
2019-05-25T12:25:29.388Z,0.47
2019-05-25T12:27:55.613Z,0.50
2019-05-25T12:30:21.728Z,1.23
2019-05-25T12:32:47.635Z,0.40
2019-05-25T12:35:15.512Z,0.53
2019-05-25T12:37:41.531Z,0.50
2019-05-25T12:40:07.880Z,0.40
2019-05-25T12:42:33.996Z,0.40
2019-05-25T12:45:00.112Z,0.30
2019-05-25T12:47:26.026Z,0.40
2019-05-25T12:49:52.092Z,0.30
2019-05-25T12:52:18.219Z,0.50
2019-05-25T12:54:44.168Z,0.50
2019-05-25T12:57:10.243Z,0.40
2019-05-25T12:59:36.137Z,0.20
2019-05-25T13:02:02.360Z,0.30
2019-05-25T13:04:28.575Z,0.37
2019-05-25T13:06:54.475Z,0.30
2019-05-25T13:09:20.402Z,0.40
2019-05-25T13:11:46.473Z,0.30
2019-05-25T13:14:14.917Z,0.40
2019-05-25T13:16:40.208Z,0.40
2019-05-25T13:19:06.303Z,0.40
2019-05-25T13:21:32.314Z,0.40
2019-05-25T13:23:58.343Z,0.30
2019-05-25T13:26:24.427Z,0.30
2019-05-25T13:28:50.469Z,0.33
2019-05-25T13:31:16.491Z,0.23
2019-05-25T13:33:42.652Z,0.30
2019-05-25T13:36:08.651Z,0.30
2019-05-25T13:38:34.671Z,0.40
2019-05-25T13:41:00.657Z,0.20
2019-05-25T13:43:26.586Z,0.30
2019-05-25T13:45:52.508Z,0.37
2019-05-25T13:48:18.628Z,0.30
2019-05-25T13:50:44.625Z,0.20
2019-05-25T13:53:10.580Z,0.27
2019-05-25T13:55:36.760Z,0.30
2019-05-25T13:58:02.784Z,0.40
2019-05-25T14:00:28.804Z,0.47
2019-05-25T14:02:54.854Z,0.43
2019-05-25T14:05:20.764Z,0.40
2019-05-25T14:07:46.732Z,0.30
2019-05-25T14:10:13.203Z,0.40
2019-05-25T14:12:39.103Z,0.40
2019-05-25T14:15:07.076Z,0.50
2019-05-25T14:17:33.263Z,0.30
2019-05-25T14:19:59.163Z,0.30
2019-05-25T14:22:25.093Z,0.40
2019-05-25T14:24:51.770Z,0.30
2019-05-25T14:27:17.875Z,0.40
2019-05-25T14:29:43.807Z,0.50
2019-05-25T14:32:09.805Z,0.50
2019-05-25T14:34:35.699Z,0.57
2019-05-25T14:37:01.624Z,0.50
2019-05-25T14:39:27.626Z,0.50
2019-05-25T14:41:53.535Z,0.30
2019-05-25T14:44:19.458Z,0.33
2019-05-25T14:46:45.447Z,0.27
2019-05-25T14:49:11.424Z,0.57
2019-05-25T14:51:37.406Z,0.80
2019-05-25T14:54:03.683Z,0.60
2019-05-25T14:56:29.606Z,0.30
2019-05-25T14:58:55.550Z,0.70
2019-05-25T15:01:21.852Z,0.40
2019-05-25T15:03:47.958Z,0.30
2019-05-25T15:06:13.882Z,0.70
2019-05-25T15:08:40.054Z,0.77
2019-05-25T15:11:06.059Z,1.30
2019-05-25T15:13:32.089Z,1.10
2019-05-25T15:15:58.275Z,1.40
2019-05-25T15:18:24.188Z,1.20
2019-05-25T15:20:50.109Z,1.10
2019-05-25T15:23:16.303Z,1.23
2019-05-25T15:25:42.399Z,1.30
2019-05-25T15:28:08.344Z,4.87
2019-05-25T15:30:34.338Z,3.57
2019-05-25T15:33:00.547Z,1.70
2019-05-25T15:35:26.515Z,1.60
2019-05-25T15:37:52.741Z,1.33
2019-05-25T15:40:19.835Z,1.20
2019-05-25T15:42:45.941Z,1.30
2019-05-25T15:45:12.447Z,1.27
2019-05-25T15:47:38.468Z,1.30
2019-05-25T15:50:07.697Z,1.40
2019-05-25T15:52:33.770Z,1.80
2019-05-25T15:54:59.663Z,1.47
2019-05-25T15:57:25.600Z,1.30
2019-05-25T15:59:51.884Z,1.30
2019-05-25T16:02:17.836Z,1.60
2019-05-25T16:04:43.853Z,1.33
2019-05-25T16:07:10.062Z,1.40
2019-05-25T16:09:36.081Z,1.30
2019-05-25T16:12:02.225Z,1.13
2019-05-25T16:14:28.242Z,1.23
2019-05-25T16:16:54.143Z,1.27
2019-05-25T16:19:20.274Z,1.10
2019-05-25T16:21:46.338Z,0.97
2019-05-25T16:24:12.349Z,1.10
2019-05-25T16:26:46.117Z,0.80
2019-05-25T16:29:06.312Z,1.10
2019-05-25T16:31:32.321Z,1.20
2019-05-25T16:33:58.257Z,1.10
2019-05-25T16:36:24.436Z,1.30
2019-05-25T16:38:50.644Z,1.10
2019-05-25T16:41:16.683Z,1.60
2019-05-25T16:43:42.694Z,1.60
2019-05-25T16:46:08.775Z,1.83
2019-05-25T16:48:34.694Z,1.50
2019-05-25T16:51:00.925Z,1.53
2019-05-25T16:53:26.932Z,2.10
2019-05-25T16:55:54.859Z,2.17
2019-05-25T16:58:21.054Z,2.10
2019-05-25T17:00:46.966Z,1.90
2019-05-25T17:03:26.893Z,2.20
2019-05-25T17:05:40.983Z,2.13
2019-05-25T17:08:06.979Z,2.30
2019-05-25T17:10:32.931Z,2.30
2019-05-25T17:12:59.021Z,2.33
2019-05-25T17:15:24.932Z,1.80
2019-05-25T17:17:51.205Z,2.00
2019-05-25T17:20:18.074Z,1.90
2019-05-25T17:22:44.086Z,1.80
2019-05-25T17:25:10.221Z,1.70
2019-05-25T17:27:36.487Z,14.90
2019-05-25T17:30:04.497Z,3.70
2019-05-25T17:32:30.665Z,12.90
2019-05-25T17:34:56.713Z,3.77
2019-05-25T17:37:22.630Z,4.77
2019-05-25T17:39:48.542Z,2.40
2019-05-25T17:42:14.607Z,1.90
2019-05-25T17:44:40.508Z,1.43
2019-05-25T17:47:06.484Z,1.70
2019-05-25T17:49:32.658Z,1.40
2019-05-25T17:51:58.588Z,1.80
2019-05-25T17:54:24.545Z,1.40
2019-05-25T17:56:50.789Z,1.50
2019-05-25T17:59:16.786Z,1.40
2019-05-25T18:01:42.744Z,1.20
2019-05-25T18:04:09.018Z,1.60
2019-05-25T18:06:35.013Z,1.20
2019-05-25T18:09:00.961Z,1.40
2019-05-25T18:11:27.101Z,1.00
2019-05-25T18:13:53.090Z,1.30
2019-05-25T18:16:19.626Z,2.23
2019-05-25T18:18:45.689Z,2.00
2019-05-25T18:21:11.598Z,3.70
2019-05-25T18:23:37.700Z,2.10
2019-05-25T18:26:04.151Z,1.30
2019-05-25T18:28:30.154Z,1.60
2019-05-25T18:30:56.204Z,1.20
2019-05-25T18:33:22.282Z,1.70
2019-05-25T18:35:48.173Z,1.60
2019-05-25T18:38:14.205Z,1.57
2019-05-25T18:40:40.383Z,1.40
2019-05-25T18:43:06.494Z,1.53
2019-05-25T18:45:32.588Z,1.50
2019-05-25T18:47:58.657Z,1.50
2019-05-25T18:50:24.740Z,1.70
2019-05-25T18:52:50.660Z,1.50
2019-05-25T18:55:17.162Z,1.13
2019-05-25T18:57:43.186Z,1.77
2019-05-25T19:00:09.816Z,1.57
2019-05-25T19:02:35.864Z,1.43
2019-05-25T19:05:03.380Z,1.30
2019-05-25T19:07:29.404Z,1.30
2019-05-25T19:09:55.389Z,1.40
2019-05-25T19:12:23.232Z,1.77
2019-05-25T19:14:49.158Z,1.73
2019-05-25T19:17:15.215Z,1.80
2019-05-25T19:19:41.628Z,2.00
2019-05-25T19:22:07.749Z,2.00
2019-05-25T19:24:33.810Z,2.30
2019-05-25T19:26:59.728Z,2.10
2019-05-25T19:29:25.655Z,2.30
2019-05-25T19:31:51.665Z,1.80
2019-05-25T19:34:17.664Z,2.07
2019-05-25T19:36:43.626Z,2.00
2019-05-25T19:39:09.953Z,2.33
2019-05-25T19:41:35.883Z,2.10
2019-05-25T19:44:02.148Z,2.23
2019-05-25T19:46:28.301Z,2.10
2019-05-25T19:48:54.220Z,2.40
2019-05-25T19:51:22.126Z,2.50
2019-05-25T19:53:48.346Z,2.10
2019-05-25T19:56:14.327Z,2.30
2019-05-25T19:58:40.251Z,2.30
2019-05-25T20:01:06.365Z,2.40
2019-05-25T20:03:32.357Z,2.13
2019-05-25T20:05:58.306Z,2.47
2019-05-25T20:08:24.286Z,2.30
2019-05-25T20:10:50.315Z,2.63
2019-05-25T20:13:17.027Z,2.17
2019-05-25T20:15:43.078Z,2.13
2019-05-25T20:18:08.993Z,2.60
2019-05-25T20:20:35.021Z,2.40
2019-05-25T20:23:01.016Z,2.27
2019-05-25T20:25:27.016Z,2.57
2019-05-25T20:27:53.145Z,2.70
2019-05-25T20:30:19.230Z,2.70
2019-05-25T20:32:45.237Z,3.13
2019-05-25T20:35:11.503Z,3.17
2019-05-25T20:37:37.838Z,3.00
2019-05-25T20:40:05.879Z,3.07
2019-05-25T20:42:31.887Z,3.20
2019-05-25T20:44:57.921Z,2.87
2019-05-25T20:47:23.822Z,3.30
2019-05-25T20:49:49.860Z,3.20
2019-05-25T20:52:16.069Z,3.10
2019-05-25T20:54:41.952Z,3.40
2019-05-25T20:57:08.009Z,3.43
2019-05-25T20:59:34.026Z,3.40
2019-05-25T21:01:59.914Z,3.30
2019-05-25T21:04:25.844Z,2.83
2019-05-25T21:06:51.942Z,3.03
2019-05-25T21:09:17.838Z,3.10
2019-05-25T21:11:43.981Z,3.00
2019-05-25T21:14:10.050Z,2.83
2019-05-25T21:16:36.071Z,2.70
2019-05-25T21:19:03.112Z,3.07
2019-05-25T21:21:29.375Z,3.37
2019-05-25T21:23:55.256Z,3.17
2019-05-25T21:26:21.301Z,3.23
2019-05-25T21:28:47.365Z,3.50
2019-05-25T21:31:13.275Z,3.10
2019-05-25T21:33:39.176Z,3.43
2019-05-25T21:36:08.666Z,3.40
2019-05-25T21:38:33.246Z,3.40
2019-05-25T21:40:59.174Z,3.10
2019-05-25T21:43:25.542Z,3.30
2019-05-25T21:45:51.468Z,3.50
2019-05-25T21:48:17.385Z,3.30
2019-05-25T21:50:43.475Z,3.60
2019-05-25T21:53:11.322Z,3.50
2019-05-25T21:55:37.423Z,3.13
2019-05-25T21:58:03.507Z,3.90
2019-05-25T22:00:31.520Z,3.77
2019-05-25T22:02:57.654Z,4.03
2019-05-25T22:05:23.766Z,3.83
2019-05-25T22:07:49.682Z,3.47
2019-05-25T22:10:15.807Z,3.60
2019-05-25T22:12:41.945Z,3.60
2019-05-25T22:15:11.818Z,3.50
2019-05-25T22:17:38.053Z,3.30
2019-05-25T22:20:06.339Z,3.30
2019-05-25T22:22:32.239Z,4.60
2019-05-25T22:24:58.149Z,3.83
2019-05-25T22:27:24.309Z,3.40
2019-05-25T22:29:50.317Z,4.00
2019-05-25T22:32:16.520Z,3.50
2019-05-25T22:34:42.612Z,4.00
2019-05-25T22:37:08.506Z,4.17
2019-05-25T22:39:34.468Z,4.17
2019-05-25T22:42:00.621Z,4.20
2019-05-25T22:44:27.002Z,4.13
2019-05-25T22:46:53.464Z,4.47
2019-05-25T22:49:19.695Z,4.53
2019-05-25T22:51:45.715Z,5.17
2019-05-25T22:54:11.636Z,5.03
2019-05-25T22:56:37.827Z,4.97
2019-05-25T22:59:03.935Z,4.50
2019-05-25T23:01:30.053Z,4.97
2019-05-25T23:03:56.126Z,4.67
2019-05-25T23:06:22.015Z,5.00
2019-05-25T23:08:47.935Z,4.43
2019-05-25T23:11:13.984Z,5.00
2019-05-25T23:13:40.124Z,4.83
2019-05-25T23:16:06.072Z,5.40
2019-05-25T23:18:32.239Z,5.07
2019-05-25T23:20:58.251Z,5.47
2019-05-25T23:23:24.268Z,5.23
2019-05-25T23:25:50.383Z,5.13
2019-05-25T23:28:16.285Z,4.83
2019-05-25T23:30:42.222Z,4.90
2019-05-25T23:33:08.341Z,4.40
2019-05-25T23:35:34.350Z,4.33
2019-05-25T23:38:03.512Z,4.87
2019-05-25T23:40:28.356Z,4.40
2019-05-25T23:42:54.242Z,4.23
2019-05-25T23:45:20.565Z,4.10
2019-05-25T23:47:46.544Z,3.97
2019-05-25T23:50:13.536Z,3.97
2019-05-25T23:52:39.449Z,3.67
2019-05-25T23:55:05.923Z,4.10
2019-05-25T23:57:31.965Z,4.33
2019-05-25T23:59:57.866Z,4.10
